Ana Sayfa
METAR-TAF:

METAR-TAF

Havaalanları :

South Big Horn County Airport

Greybull, Wyoming, Amerika Birleşik Devletleri

Enlem: 44-30-57N, Boylam: 108-04-33W, yükseklik: 1199 m

Güncel hava durumu gözlemi

Rapor saat 02:53 UTC de 10 dakika önce yapıldı.
Rüzgar doğudan 5 kt
Sıcaklık -3°C
Nem 54%
Basınç 1029 hPa
Görüş mesafesi: 16.1 km
Açık gökyüzü

METAR: KGEY 200253Z AUTO 10005KT 10SM CLR M03/M11 A3039 RMK AO2 SLP353 T10331111 53004 $

Saat: 20:03 (03:03 UTC)


TAF: eksik

4.000'den fazla havaalanı için hava durumu gözlemleri ve tahminleri (METAR ve TAF raporları).

Kullanılabilir istasyonlar harita üzerinde sarı ve kırmızı noktalarla gösterilir.

İstasyonun adını görmek için fareyi noktanın üzerinde gezdirin.

Sonrasında hava gözlem ve tahminlerini görmek için tıklayın.

Haritayı değiştirmek için: yaklaştırmak için siyah artı işaretli yeşil düğmeye ve uzaklaştırmak için de eksi işaretli düğmeye hızla tıklayın; bitişik haritalar için yeşil okları kullanın.


METAR-TAF: